Time;durP1;ratioP1;P1;durP2;ratioP2;P2;SDS_P1;SDS_P2;PMS_P1;PMS_P2;Temp;Humidity;BMP_temperature;BMP_pressure;BME280_temperature;BME280_humidity;BME280_pressure;Samples;Min_cycle;Max_cycle;Signal;HPM_P1;HPM_P2
2022/11/25 00:01:30;;;;;;;22.77;7.15;;;;;;;;;;5049991;28;20025;-78
2022/11/25 00:03:57;;;;;;;20.90;6.80;;;;;;;;;;5052020;28;20083;-80
2022/11/25 00:06:25;;;;;;;18.33;6.65;;;;;;;;;;5049856;28;20036;-80
2022/11/25 00:08:54;;;;;;;17.65;6.93;;;;;;;;;;5050268;28;20032;-82
2022/11/25 00:11:20;;;;;;;19.55;7.03;;;;;;;;;;5064831;28;20085;-81
2022/11/25 00:13:46;;;;;;;23.13;7.50;;;;;;;;;;5069768;28;20040;-81
2022/11/25 00:16:14;;;;;;;19.42;6.88;;;;;;;;;;5070736;28;20032;-80
2022/11/25 00:18:43;;;;;;;20.65;6.80;;;;;;;;;;5070922;28;20032;-81
2022/11/25 00:21:11;;;;;;;18.80;7.28;;;;;;;;;;5069495;28;20496;-80
2022/11/25 00:23:37;;;;;;;22.73;7.65;;;;;;;;;;5069921;28;20412;-81
2022/11/25 00:26:15;;;;;;;19.20;8.32;;;;;;;;;;5069605;28;20038;-80
2022/11/25 00:28:43;;;;;;;24.50;7.63;;;;;;;;;;5070724;28;20024;-80
2022/11/25 00:31:15;;;;;;;18.42;7.05;;;;;;;;;;5069422;28;20121;-81
2022/11/25 00:33:41;;;;;;;21.40;7.22;;;;;;;;;;5071377;28;20035;-80
2022/11/25 00:36:13;;;;;;;17.38;7.40;;;;;;;;;;5069365;28;20056;-81
2022/11/25 00:38:38;;;;;;;21.27;7.43;;;;;;;;;;5069491;28;20032;-81
2022/11/25 00:46:32;;;;;;;18.33;6.72;;;;;;;;;;5069337;28;20115;-80
2022/11/25 00:48:57;;;;;;;15.43;6.53;;;;;;;;;;5069606;28;20469;-80
2022/11/25 00:51:23;;;;;;;19.88;7.13;;;;;;;;;;5069218;28;20021;-81
2022/11/25 00:53:48;;;;;;;17.88;6.88;;;;;;;;;;5069401;28;20464;-80
2022/11/25 00:56:14;;;;;;;21.25;7.30;;;;;;;;;;5069199;28;20040;-80
2022/11/25 00:58:43;;;;;;;23.58;7.22;;;;;;;;;;5069254;28;20035;-80
2022/11/25 01:01:09;;;;;;;19.42;7.25;;;;;;;;;;5069423;28;20107;-80
2022/11/25 01:03:38;;;;;;;19.08;7.07;;;;;;;;;;5069512;28;20560;-80
2022/11/25 01:06:06;;;;;;;17.75;7.07;;;;;;;;;;5069103;28;20036;-80
2022/11/25 01:08:32;;;;;;;18.20;6.50;;;;;;;;;;5070610;28;20029;-80
2022/11/25 01:11:11;;;;;;;18.30;6.90;;;;;;;;;;5073327;28;20022;-81
2022/11/25 01:13:36;;;;;;;19.98;7.05;;;;;;;;;;5073196;28;20027;-80
2022/11/25 01:16:04;;;;;;;17.10;6.78;;;;;;;;;;5073345;28;20017;-80
2022/11/25 01:18:31;;;;;;;19.35;6.50;;;;;;;;;;5073475;28;20115;-81
2022/11/25 01:21:20;;;;;;;16.88;6.97;;;;;;;;;;5072695;28;20054;-80
2022/11/25 01:23:47;;;;;;;16.92;6.45;;;;;;;;;;5073101;28;20027;-81
2022/11/25 01:26:20;;;;;;;16.38;6.65;;;;;;;;;;5072563;28;20066;-80
2022/11/25 01:28:46;;;;;;;16.38;5.72;;;;;;;;;;5072779;28;20024;-81
2022/11/25 01:31:15;;;;;;;20.77;6.45;;;;;;;;;;5072909;28;20086;-80
2022/11/25 01:33:41;;;;;;;17.52;6.22;;;;;;;;;;5073220;28;20048;-81
2022/11/25 01:36:13;;;;;;;17.45;5.85;;;;;;;;;;5072776;28;20036;-81
2022/11/25 01:38:39;;;;;;;17.50;5.97;;;;;;;;;;5072987;28;20032;-81
2022/11/25 01:41:06;;;;;;;16.48;6.20;;;;;;;;;;5072595;28;20029;-81
2022/11/25 01:43:32;;;;;;;16.30;5.97;;;;;;;;;;5072576;28;20042;-80
2022/11/25 01:46:03;;;;;;;20.80;6.75;;;;;;;;;;5072591;28;20036;-80
2022/11/25 01:48:43;;;;;;;16.92;6.93;;;;;;;;;;5072649;28;20048;-80
2022/11/25 01:51:24;;;;;;;19.08;6.85;;;;;;;;;;5072665;28;20032;-80
2022/11/25 01:53:50;;;;;;;18.35;6.95;;;;;;;;;;5072727;28;20017;-80
2022/11/25 01:56:16;;;;;;;14.70;6.22;;;;;;;;;;5072239;28;20044;-80
2022/11/25 01:58:44;;;;;;;18.63;6.15;;;;;;;;;;5072346;28;20024;-81
2022/11/25 02:01:09;;;;;;;15.05;5.63;;;;;;;;;;5072137;28;20075;-80
2022/11/25 02:03:41;;;;;;;13.85;5.45;;;;;;;;;;5074035;28;20484;-81
2022/11/25 02:06:16;;;;;;;17.10;6.05;;;;;;;;;;5072712;28;20025;-81
2022/11/25 02:08:47;;;;;;;12.90;5.25;;;;;;;;;;5072445;28;20021;-81
2022/11/25 02:11:14;;;;;;;14.80;5.30;;;;;;;;;;5072184;28;20054;-79
2022/11/25 02:13:40;;;;;;;14.77;5.18;;;;;;;;;;5072129;28;20024;-81
2022/11/25 02:16:05;;;;;;;16.55;5.03;;;;;;;;;;5070734;28;20028;-82
2022/11/25 02:18:31;;;;;;;13.15;4.97;;;;;;;;;;5072094;28;20036;-79
2022/11/25 02:20:56;;;;;;;12.77;4.60;;;;;;;;;;5071544;28;20411;-79
2022/11/25 02:23:51;;;;;;;13.20;4.88;;;;;;;;;;5070575;28;20032;-81
2022/11/25 02:26:16;;;;;;;15.27;4.55;;;;;;;;;;5071470;28;20037;-81
2022/11/25 02:28:42;;;;;;;16.10;4.72;;;;;;;;;;5071578;28;20024;-81
2022/11/25 02:31:07;;;;;;;12.30;4.20;;;;;;;;;;5072045;28;20059;-82
2022/11/25 02:33:33;;;;;;;17.10;4.70;;;;;;;;;;5072070;28;20028;-82
2022/11/25 02:36:06;;;;;;;11.88;4.20;;;;;;;;;;5071914;28;20027;-82
2022/11/25 02:38:56;;;;;;;14.27;4.22;;;;;;;;;;5071673;28;20078;-82
2022/11/25 02:41:29;;;;;;;14.95;4.47;;;;;;;;;;5066312;28;20047;-86
2022/11/25 02:43:55;;;;;;;13.93;3.90;;;;;;;;;;5071797;28;20024;-85
2022/11/25 02:46:23;;;;;;;15.57;4.22;;;;;;;;;;5071964;28;20028;-85
2022/11/25 02:48:50;;;;;;;12.07;4.00;;;;;;;;;;5071957;28;20051;-86
2022/11/25 02:51:18;;;;;;;17.95;4.47;;;;;;;;;;5072019;28;20454;-83
2022/11/25 02:53:43;;;;;;;16.30;4.60;;;;;;;;;;5071421;28;20056;-86
2022/11/25 02:56:12;;;;;;;13.73;4.28;;;;;;;;;;5071122;28;20125;-84
2022/11/25 02:58:38;;;;;;;12.52;4.65;;;;;;;;;;5071069;28;20024;-85
2022/11/25 03:01:04;;;;;;;14.00;4.18;;;;;;;;;;5071532;28;20032;-85
2022/11/25 03:03:29;;;;;;;15.15;4.30;;;;;;;;;;5071284;28;20081;-85
2022/11/25 03:05:55;;;;;;;16.52;4.18;;;;;;;;;;5070029;28;20037;-85
2022/11/25 03:08:20;;;;;;;9.77;3.78;;;;;;;;;;5070034;28;20530;-84
2022/11/25 03:10:46;;;;;;;13.80;4.15;;;;;;;;;;5071361;28;20033;-85
2022/11/25 03:13:11;;;;;;;10.90;3.95;;;;;;;;;;5070399;28;20028;-83
2022/11/25 03:15:36;;;;;;;12.65;4.53;;;;;;;;;;5070667;28;20120;-85
2022/11/25 03:18:03;;;;;;;11.93;4.40;;;;;;;;;;5070961;28;20020;-83
2022/11/25 03:20:29;;;;;;;13.73;4.45;;;;;;;;;;5071056;28;20103;-84
2022/11/25 03:22:54;;;;;;;11.20;4.28;;;;;;;;;;5070914;28;20108;-84
2022/11/25 03:25:19;;;;;;;14.43;4.68;;;;;;;;;;5070968;28;20050;-84
2022/11/25 03:27:45;;;;;;;16.08;4.60;;;;;;;;;;5070254;28;20419;-86
2022/11/25 03:30:15;;;;;;;14.27;4.50;;;;;;;;;;5070569;28;20028;-85
2022/11/25 03:32:40;;;;;;;11.98;4.45;;;;;;;;;;5069839;28;20036;-85
2022/11/25 03:35:07;;;;;;;13.60;4.10;;;;;;;;;;5070913;28;20016;-82
2022/11/25 03:37:32;;;;;;;9.85;4.18;;;;;;;;;;5070504;28;20031;-84
2022/11/25 03:39:58;;;;;;;15.13;4.07;;;;;;;;;;5070568;28;20020;-85
2022/11/25 03:42:23;;;;;;;11.32;4.00;;;;;;;;;;5070238;28;20135;-84
2022/11/25 03:44:49;;;;;;;18.83;4.47;;;;;;;;;;5070530;28;20024;-81
2022/11/25 03:47:14;;;;;;;11.15;4.22;;;;;;;;;;5070175;28;20400;-85
2022/11/25 03:49:39;;;;;;;13.38;4.13;;;;;;;;;;5070327;28;20020;-84
2022/11/25 03:52:05;;;;;;;12.45;4.20;;;;;;;;;;5070250;28;20615;-85
2022/11/25 03:54:30;;;;;;;10.57;3.80;;;;;;;;;;5070447;28;20020;-86
2022/11/25 03:56:55;;;;;;;11.70;3.88;;;;;;;;;;5069905;28;20047;-84
2022/11/25 03:59:21;;;;;;;14.43;4.28;;;;;;;;;;5071732;28;20021;-86
2022/11/25 04:01:46;;;;;;;10.55;3.70;;;;;;;;;;5068851;28;20390;-85
2022/11/25 04:04:12;;;;;;;11.90;3.95;;;;;;;;;;5069928;28;20633;-84
2022/11/25 04:06:40;;;;;;;11.27;4.00;;;;;;;;;;5080566;28;20020;-84
2022/11/25 04:09:07;;;;;;;9.50;3.72;;;;;;;;;;5080254;28;20028;-85
2022/11/25 04:14:16;;;;;;;9.48;3.72;;;;;;;;;;5079656;28;20062;-85
2022/11/25 04:16:42;;;;;;;9.70;3.55;;;;;;;;;;5081353;28;20024;-81
2022/11/25 04:19:07;;;;;;;11.60;3.78;;;;;;;;;;5081320;28;20073;-84
2022/11/25 04:21:33;;;;;;;9.32;3.45;;;;;;;;;;5081311;28;20228;-85
2022/11/25 04:23:58;;;;;;;12.05;3.83;;;;;;;;;;5081264;28;20082;-85
2022/11/25 04:26:23;;;;;;;12.18;4.03;;;;;;;;;;5081125;28;20027;-83
2022/11/25 04:28:49;;;;;;;17.38;4.40;;;;;;;;;;5079717;28;20016;-83
2022/11/25 04:31:14;;;;;;;10.30;3.78;;;;;;;;;;5081468;28;20016;-83
2022/11/25 04:33:40;;;;;;;11.50;4.00;;;;;;;;;;5079952;28;20066;-85
2022/11/25 04:36:06;;;;;;;9.32;3.95;;;;;;;;;;5081095;28;20021;-85
2022/11/25 04:38:31;;;;;;;9.70;4.03;;;;;;;;;;5081179;28;20080;-84
2022/11/25 04:40:56;;;;;;;13.88;3.85;;;;;;;;;;5081092;28;20312;-84
2022/11/25 04:43:22;;;;;;;8.90;3.85;;;;;;;;;;5078662;28;20028;-85
2022/11/25 04:45:48;;;;;;;13.55;4.30;;;;;;;;;;5081257;28;20154;-85
2022/11/25 04:48:13;;;;;;;10.77;4.40;;;;;;;;;;5081030;28;20028;-85
2022/11/25 04:50:39;;;;;;;13.35;4.50;;;;;;;;;;5081136;28;20047;-83
2022/11/25 04:53:04;;;;;;;17.83;4.82;;;;;;;;;;5080918;28;20336;-82
2022/11/25 04:55:30;;;;;;;14.10;4.63;;;;;;;;;;5080788;28;20104;-84
2022/11/25 04:57:55;;;;;;;14.65;4.90;;;;;;;;;;5080380;28;20189;-84
2022/11/25 05:00:21;;;;;;;11.93;4.57;;;;;;;;;;5077827;28;20029;-84
2022/11/25 05:02:47;;;;;;;15.38;5.05;;;;;;;;;;5080946;28;20040;-84
2022/11/25 05:05:12;;;;;;;13.52;5.03;;;;;;;;;;5080178;28;20312;-84
2022/11/25 05:07:37;;;;;;;13.73;5.40;;;;;;;;;;5076247;28;20032;-85
2022/11/25 05:10:04;;;;;;;13.15;4.90;;;;;;;;;;5076436;28;20038;-85
2022/11/25 05:12:29;;;;;;;17.55;5.10;;;;;;;;;;5080507;28;20024;-83
2022/11/25 05:14:55;;;;;;;12.93;5.45;;;;;;;;;;5078559;28;20279;-85
2022/11/25 05:17:23;;;;;;;10.38;4.53;;;;;;;;;;5078264;28;20216;-85
2022/11/25 05:19:49;;;;;;;9.38;4.00;;;;;;;;;;5078266;28;20036;-84
2022/11/25 05:22:19;;;;;;;12.15;4.32;;;;;;;;;;5079193;28;20036;-84
2022/11/25 05:24:46;;;;;;;11.90;5.03;;;;;;;;;;5078757;28;20024;-85
2022/11/25 05:27:11;;;;;;;14.55;4.53;;;;;;;;;;5078944;28;20040;-85
2022/11/25 05:29:36;;;;;;;13.32;4.18;;;;;;;;;;5078252;28;20118;-85
2022/11/25 05:32:03;;;;;;;9.07;4.25;;;;;;;;;;5076528;28;20020;-85
2022/11/25 05:34:29;;;;;;;9.65;4.50;;;;;;;;;;5079865;28;20070;-82
2022/11/25 05:36:54;;;;;;;10.93;4.75;;;;;;;;;;5079659;28;20020;-84
2022/11/25 05:39:20;;;;;;;8.85;4.28;;;;;;;;;;5078283;28;20028;-84
2022/11/25 05:41:45;;;;;;;10.48;4.40;;;;;;;;;;5077162;28;20082;-83
2022/11/25 05:44:10;;;;;;;10.45;4.30;;;;;;;;;;5077176;28;20024;-83
2022/11/25 05:46:36;;;;;;;10.93;4.05;;;;;;;;;;5075426;28;20024;-84
2022/11/25 05:49:01;;;;;;;11.00;4.25;;;;;;;;;;5077122;28;20056;-84
2022/11/25 05:51:27;;;;;;;12.57;4.22;;;;;;;;;;5075096;28;20082;-84
2022/11/25 05:53:53;;;;;;;10.48;4.22;;;;;;;;;;5078784;28;20054;-85
2022/11/25 05:56:19;;;;;;;10.90;4.15;;;;;;;;;;5081682;28;20048;-84
2022/11/25 05:58:44;;;;;;;8.63;3.83;;;;;;;;;;5079466;28;20051;-84
2022/11/25 06:01:13;;;;;;;14.10;4.05;;;;;;;;;;5084212;28;20024;-84
2022/11/25 06:03:39;;;;;;;9.23;3.80;;;;;;;;;;5079840;28;20033;-81
2022/11/25 06:06:05;;;;;;;10.80;3.75;;;;;;;;;;5083540;28;20027;-84
2022/11/25 06:08:31;;;;;;;9.35;3.72;;;;;;;;;;5079174;28;20047;-84
2022/11/25 06:10:56;;;;;;;9.25;3.95;;;;;;;;;;5083194;28;20020;-78
2022/11/25 06:13:22;;;;;;;10.10;3.67;;;;;;;;;;5077109;28;20032;-82
2022/11/25 06:15:47;;;;;;;8.68;3.42;;;;;;;;;;5076294;28;20077;-77
2022/11/25 06:18:15;;;;;;;8.95;3.50;;;;;;;;;;5074616;28;20051;-83
2022/11/25 06:20:41;;;;;;;10.13;3.63;;;;;;;;;;5075966;28;20048;-84
2022/11/25 06:23:09;;;;;;;7.85;3.55;;;;;;;;;;5086582;28;20032;-84
2022/11/25 06:25:35;;;;;;;11.63;3.65;;;;;;;;;;5079989;28;20112;-84
2022/11/25 06:28:02;;;;;;;10.40;3.75;;;;;;;;;;5080179;28;20084;-83
2022/11/25 06:30:28;;;;;;;9.43;3.03;;;;;;;;;;5075998;28;20036;-85
2022/11/25 06:32:54;;;;;;;6.85;3.13;;;;;;;;;;5078369;28;20320;-84
2022/11/25 06:35:20;;;;;;;7.03;3.15;;;;;;;;;;5080814;28;20031;-84
2022/11/25 06:37:45;;;;;;;12.35;3.42;;;;;;;;;;5076728;28;20107;-84
2022/11/25 06:40:11;;;;;;;13.68;4.20;;;;;;;;;;5077373;28;20025;-84
2022/11/25 06:42:42;;;;;;;11.32;3.50;;;;;;;;;;5066114;28;20017;-84
2022/11/25 06:45:08;;;;;;;8.93;3.40;;;;;;;;;;5089287;28;20055;-83
2022/11/25 06:47:33;;;;;;;9.27;3.67;;;;;;;;;;5081961;28;20422;-82
2022/11/25 06:49:58;;;;;;;8.70;3.42;;;;;;;;;;5084060;28;20338;-84
2022/11/25 06:52:24;;;;;;;15.60;3.53;;;;;;;;;;5076070;28;20027;-82
2022/11/25 06:54:50;;;;;;;9.60;3.92;;;;;;;;;;5077311;28;20031;-84
2022/11/25 06:57:17;;;;;;;8.77;3.45;;;;;;;;;;5076799;28;20041;-85
2022/11/25 06:59:43;;;;;;;9.18;4.15;;;;;;;;;;5073078;28;20035;-85
2022/11/25 07:02:10;;;;;;;8.25;3.72;;;;;;;;;;5074454;28;20028;-85
2022/11/25 07:04:36;;;;;;;9.50;3.63;;;;;;;;;;5073856;28;20100;-81
2022/11/25 07:07:01;;;;;;;9.07;4.15;;;;;;;;;;5073053;28;20442;-84
2022/11/25 07:09:27;;;;;;;11.18;3.95;;;;;;;;;;5078315;28;20107;-83
2022/11/25 07:11:52;;;;;;;10.05;3.90;;;;;;;;;;5075918;28;20362;-84
2022/11/25 07:14:17;;;;;;;8.15;3.63;;;;;;;;;;5075923;28;20100;-84
2022/11/25 07:16:44;;;;;;;8.73;3.55;;;;;;;;;;5064799;28;20032;-84
2022/11/25 07:19:15;;;;;;;7.40;3.10;;;;;;;;;;5079386;28;20028;-84
2022/11/25 07:21:43;;;;;;;5.63;2.53;;;;;;;;;;5078754;28;20040;-83
2022/11/25 07:24:09;;;;;;;7.15;2.65;;;;;;;;;;5077774;28;20032;-84
2022/11/25 07:26:39;;;;;;;8.00;2.65;;;;;;;;;;5076813;28;20044;-85
2022/11/25 07:29:07;;;;;;;7.72;2.67;;;;;;;;;;5078614;28;20927;-89
2022/11/25 07:31:36;;;;;;;7.35;2.67;;;;;;;;;;5061058;28;20033;-74
2022/11/25 07:34:18;;;;;;;8.77;2.90;;;;;;;;;;5061613;28;20039;-81
2022/11/25 07:36:45;;;;;;;8.70;3.60;;;;;;;;;;5060184;28;20037;-79
2022/11/25 07:39:14;;;;;;;10.57;3.70;;;;;;;;;;5061993;28;20029;-77
2022/11/25 07:41:42;;;;;;;10.65;3.90;;;;;;;;;;5061494;28;20317;-76
2022/11/25 07:44:11;;;;;;;11.15;4.60;;;;;;;;;;5060686;28;20162;-73
2022/11/25 07:46:39;;;;;;;10.07;4.63;;;;;;;;;;5061912;28;20024;-76
2022/11/25 07:49:07;;;;;;;11.88;4.55;;;;;;;;;;5061842;28;20040;-75
2022/11/25 07:51:34;;;;;;;10.63;4.43;;;;;;;;;;5060591;28;20216;-74
2022/11/25 07:54:01;;;;;;;11.85;4.57;;;;;;;;;;5061852;28;20386;-76
2022/11/25 07:56:28;;;;;;;10.98;4.53;;;;;;;;;;5061574;28;20037;-76
2022/11/25 07:58:54;;;;;;;10.95;4.90;;;;;;;;;;5060222;28;20271;-75
2022/11/25 08:01:20;;;;;;;9.75;4.57;;;;;;;;;;5060306;28;20037;-77
2022/11/25 08:03:48;;;;;;;12.63;4.15;;;;;;;;;;5061774;28;20114;-77
2022/11/25 08:06:18;;;;;;;9.48;3.85;;;;;;;;;;5061110;28;20045;-77
2022/11/25 08:08:44;;;;;;;12.07;4.15;;;;;;;;;;5056695;28;20025;-75
2022/11/25 08:11:13;;;;;;;8.88;3.80;;;;;;;;;;5063401;28;20484;-77
2022/11/25 08:13:38;;;;;;;7.80;3.65;;;;;;;;;;5061159;28;20036;-74
2022/11/25 08:16:05;;;;;;;10.40;3.83;;;;;;;;;;5068607;28;20027;-78
2022/11/25 08:18:31;;;;;;;8.32;3.33;;;;;;;;;;5073556;28;20396;-78
2022/11/25 08:21:05;;;;;;;11.85;3.83;;;;;;;;;;5073235;28;20024;-79
2022/11/25 08:23:32;;;;;;;10.88;3.85;;;;;;;;;;5073639;28;20435;-78
2022/11/25 08:26:04;;;;;;;11.02;3.75;;;;;;;;;;5064643;28;20040;-78
2022/11/25 08:28:30;;;;;;;10.52;3.78;;;;;;;;;;5071687;28;20020;-79
2022/11/25 08:31:09;;;;;;;10.20;3.55;;;;;;;;;;5074178;28;20043;-79
2022/11/25 08:33:35;;;;;;;7.70;3.28;;;;;;;;;;5072403;28;20028;-79
2022/11/25 08:36:00;;;;;;;8.15;3.50;;;;;;;;;;5071222;28;20036;-78
2022/11/25 08:38:27;;;;;;;11.25;3.78;;;;;;;;;;5071282;28;20078;-78
2022/11/25 08:40:53;;;;;;;7.03;3.10;;;;;;;;;;5072478;28;20040;-78
2022/11/25 08:43:20;;;;;;;10.90;3.30;;;;;;;;;;5070238;28;20070;-79
2022/11/25 08:45:47;;;;;;;6.88;2.70;;;;;;;;;;5075682;28;20032;-82
2022/11/25 08:48:13;;;;;;;10.23;3.00;;;;;;;;;;5071456;28;20086;-83
2022/11/25 08:50:40;;;;;;;7.43;2.30;;;;;;;;;;5072809;28;20079;-79
2022/11/25 08:53:06;;;;;;;5.72;2.00;;;;;;;;;;5070009;28;20091;-81
2022/11/25 08:55:31;;;;;;;6.57;1.80;;;;;;;;;;5070680;28;20071;-82
2022/11/25 08:57:57;;;;;;;6.13;1.80;;;;;;;;;;5068733;28;20033;-81
2022/11/25 09:00:22;;;;;;;6.35;1.40;;;;;;;;;;5070489;28;20024;-80
2022/11/25 09:02:47;;;;;;;3.95;1.33;;;;;;;;;;5069135;28;20035;-82
2022/11/25 09:05:15;;;;;;;2.67;1.20;;;;;;;;;;5069952;28;20586;-81
2022/11/25 09:07:41;;;;;;;6.82;1.75;;;;;;;;;;5070469;28;20052;-81
2022/11/25 09:10:09;;;;;;;5.10;1.60;;;;;;;;;;5070457;28;20067;-82
2022/11/25 09:12:35;;;;;;;4.55;1.35;;;;;;;;;;5070505;28;20028;-80
2022/11/25 09:15:00;;;;;;;3.70;1.40;;;;;;;;;;5071855;28;20025;-81
2022/11/25 09:17:26;;;;;;;5.10;1.35;;;;;;;;;;5065481;28;20120;-80
2022/11/25 09:19:51;;;;;;;9.27;1.60;;;;;;;;;;5050854;28;20025;-79
2022/11/25 09:22:17;;;;;;;4.15;1.50;;;;;;;;;;5061580;28;20081;-80
2022/11/25 09:24:44;;;;;;;4.38;1.20;;;;;;;;;;5084808;28;20048;-80
2022/11/25 09:27:09;;;;;;;4.50;1.30;;;;;;;;;;5068815;28;20017;-80
2022/11/25 09:29:35;;;;;;;4.30;1.30;;;;;;;;;;5070639;28;20031;-80
2022/11/25 09:32:00;;;;;;;3.53;1.42;;;;;;;;;;5076953;28;20039;-79
2022/11/25 09:34:25;;;;;;;3.22;1.27;;;;;;;;;;5073368;28;20028;-81
2022/11/25 09:36:51;;;;;;;3.70;1.30;;;;;;;;;;5073591;28;20059;-82
2022/11/25 09:39:17;;;;;;;5.10;1.65;;;;;;;;;;5071798;28;20063;-80
2022/11/25 09:47:28;;;;;;;3.03;1.48;;;;;;;;;;5074262;28;20067;-81
2022/11/25 09:50:22;;;;;;;4.75;1.50;;;;;;;;;;5071337;28;20036;-76
2022/11/25 09:53:16;;;;;;;5.40;1.50;;;;;;;;;;5060273;28;20616;-76
2022/11/25 09:55:46;;;;;;;5.95;1.40;;;;;;;;;;5067701;28;20708;-78
2022/11/25 09:58:23;;;;;;;7.32;1.50;;;;;;;;;;5069368;28;20055;-75
2022/11/25 10:00:51;;;;;;;5.35;1.38;;;;;;;;;;5072265;28;20031;-77
2022/11/25 10:03:29;;;;;;;4.88;1.80;;;;;;;;;;5064145;28;20021;-74
2022/11/25 10:06:10;;;;;;;6.47;1.48;;;;;;;;;;5062566;28;20036;-74
2022/11/25 10:08:40;;;;;;;4.38;1.70;;;;;;;;;;5059993;28;20050;-74
2022/11/25 10:11:19;;;;;;;5.82;1.83;;;;;;;;;;5061191;28;20029;-74
2022/11/25 10:14:20;;;;;;;4.65;1.25;;;;;;;;;;5073278;28;20032;-75
2022/11/25 10:16:48;;;;;;;;;;;;;;;;;;5069769;28;20036;-85
2022/11/25 10:19:32;;;;;;;5.57;1.35;;;;;;;;;;5067553;28;19916;-77
2022/11/25 10:22:02;;;;;;;3.65;1.15;;;;;;;;;;5051526;28;20036;-79
2022/11/25 10:24:27;;;;;;;5.80;1.10;;;;;;;;;;5054167;28;20029;-77
2022/11/25 10:27:00;;;;;;;3.70;1.15;;;;;;;;;;5050925;28;20036;-76
2022/11/25 10:29:29;;;;;;;3.80;1.20;;;;;;;;;;5074028;28;20503;-81
2022/11/25 10:32:18;;;;;;;3.03;1.20;;;;;;;;;;5050557;28;20477;-73
2022/11/25 10:34:48;;;;;;;4.13;1.10;;;;;;;;;;5048685;28;20021;-75
2022/11/25 10:37:25;;;;;;;5.73;1.10;;;;;;;;;;5051537;28;20029;-76
2022/11/25 10:39:50;;;;;;;6.43;1.30;;;;;;;;;;5047823;28;20272;-76
2022/11/25 10:42:22;;;;;;;3.33;1.20;;;;;;;;;;5048916;28;20035;-75
2022/11/25 10:44:47;;;;;;;5.10;1.08;;;;;;;;;;5049781;28;20029;-76
2022/11/25 10:47:36;;;;;;;3.28;1.17;;;;;;;;;;5049459;28;20392;-74
2022/11/25 10:50:20;;;;;;;6.10;1.50;;;;;;;;;;5049617;28;20029;-75
2022/11/25 10:53:13;;;;;;;3.92;1.15;;;;;;;;;;5049681;28;20039;-75
2022/11/25 10:55:54;;;;;;;7.63;1.20;;;;;;;;;;5050946;28;20512;-76
2022/11/25 10:58:36;;;;;;;3.75;1.23;;;;;;;;;;5050563;28;20053;-75
2022/11/25 11:01:24;;;;;;;6.20;1.40;;;;;;;;;;5051122;28;20025;-75
2022/11/25 11:04:17;;;;;;;6.68;1.63;;;;;;;;;;5050800;28;20021;-76
2022/11/25 11:06:45;;;;;;;3.97;1.50;;;;;;;;;;5050691;28;20531;-76
2022/11/25 11:09:34;;;;;;;4.82;1.67;;;;;;;;;;5050075;28;20068;-75
2022/11/25 11:12:16;;;;;;;6.13;2.30;;;;;;;;;;5050400;28;20031;-75
2022/11/25 11:14:42;;;;;;;6.78;2.22;;;;;;;;;;5050748;28;20025;-75
2022/11/25 11:17:31;;;;;;;4.57;1.88;;;;;;;;;;5050712;28;20032;-72
2022/11/25 11:20:06;;;;;;;4.93;2.08;;;;;;;;;;5050468;28;20054;-76
2022/11/25 11:22:35;;;;;;;6.55;2.15;;;;;;;;;;5050157;28;20040;-72
2022/11/25 11:25:26;;;;;;;4.60;1.60;;;;;;;;;;5050067;28;20032;-73
2022/11/25 11:27:51;;;;;;;;;;;;;;;;;;5049692;28;20048;-73
2022/11/25 11:30:23;;;;;;;5.95;1.70;;;;;;;;;;5050364;28;19913;-74
2022/11/25 11:32:57;;;;;;;3.85;1.30;;;;;;;;;;5050581;28;20028;-73
2022/11/25 11:35:43;;;;;;;5.20;1.40;;;;;;;;;;5049651;28;20429;-75
2022/11/25 11:38:25;;;;;;;3.85;1.40;;;;;;;;;;5050171;28;20029;-73
2022/11/25 11:40:57;;;;;;;3.55;1.10;;;;;;;;;;5050075;28;20032;-74
2022/11/25 11:43:37;;;;;;;2.00;0.70;;;;;;;;;;5049718;28;20025;-73
2022/11/25 11:46:12;;;;;;;3.30;1.27;;;;;;;;;;5050327;28;20059;-74
2022/11/25 11:48:37;;;;;;;3.88;1.30;;;;;;;;;;5049889;28;20035;-75
2022/11/25 11:51:29;;;;;;;4.03;1.20;;;;;;;;;;5050178;28;20029;-73
2022/11/25 11:54:03;;;;;;;2.67;1.00;;;;;;;;;;5049670;28;20036;-75
2022/11/25 11:56:42;;;;;;;3.33;1.13;;;;;;;;;;5048614;28;20099;-75
2022/11/25 11:59:25;;;;;;;3.05;0.90;;;;;;;;;;5049151;28;20059;-76
2022/11/25 12:02:11;;;;;;;2.83;1.20;;;;;;;;;;5049640;28;20055;-75
2022/11/25 12:04:55;;;;;;;2.03;1.00;;;;;;;;;;5049564;28;20056;-75
2022/11/25 12:07:21;;;;;;;2.25;0.98;;;;;;;;;;5049876;28;20032;-75
2022/11/25 12:09:56;;;;;;;2.35;1.00;;;;;;;;;;5049392;28;20025;-74
2022/11/25 12:12:31;;;;;;;1.25;0.73;;;;;;;;;;5049578;28;20464;-74
2022/11/25 12:15:10;;;;;;;3.20;1.00;;;;;;;;;;5049466;28;20020;-74
2022/11/25 12:17:47;;;;;;;1.85;0.98;;;;;;;;;;5049351;28;20028;-72
2022/11/25 12:20:33;;;;;;;4.68;1.30;;;;;;;;;;5049121;28;20112;-75
2022/11/25 12:23:04;;;;;;;3.45;1.15;;;;;;;;;;5049398;28;20113;-75
2022/11/25 12:25:40;;;;;;;5.45;1.25;;;;;;;;;;5049405;28;20549;-74
2022/11/25 12:28:15;;;;;;;3.30;1.17;;;;;;;;;;5049239;28;20025;-75
2022/11/25 12:31:06;;;;;;;3.90;1.55;;;;;;;;;;5049263;28;20031;-75
2022/11/25 12:33:43;;;;;;;4.30;1.40;;;;;;;;;;5049199;28;20488;-76
2022/11/25 12:36:14;;;;;;;4.50;1.42;;;;;;;;;;5049189;28;20033;-75
2022/11/25 12:38:54;;;;;;;3.28;1.20;;;;;;;;;;5049066;28;20044;-75
2022/11/25 12:41:43;;;;;;;2.90;1.00;;;;;;;;;;5048962;28;20033;-73
2022/11/25 12:44:26;;;;;;;3.83;1.30;;;;;;;;;;5048852;28;20563;-76
2022/11/25 12:46:55;;;;;;;2.00;0.90;;;;;;;;;;5049326;28;20036;-75
2022/11/25 12:49:24;;;;;;;2.20;1.00;;;;;;;;;;5048850;28;20485;-75
2022/11/25 12:51:59;;;;;;;3.22;0.90;;;;;;;;;;5049058;28;20032;-76
2022/11/25 12:54:49;;;;;;;3.53;1.20;;;;;;;;;;5048793;28;20025;-75
2022/11/25 12:57:52;;;;;;;4.95;1.83;;;;;;;;;;5048599;28;20160;-74
2022/11/25 13:00:35;;;;;;;4.65;1.10;;;;;;;;;;5048832;28;20065;-76
2022/11/25 13:03:03;;;;;;;3.58;1.10;;;;;;;;;;5049935;28;20481;-75
2022/11/25 13:05:47;;;;;;;5.20;1.50;;;;;;;;;;5055397;28;20086;-76
2022/11/25 13:08:28;;;;;;;3.38;1.40;;;;;;;;;;5055544;28;20633;-75
2022/11/25 13:10:53;;;;;;;7.15;1.65;;;;;;;;;;5055254;28;20025;-74
2022/11/25 13:13:46;;;;;;;4.45;1.30;;;;;;;;;;5055231;28;20047;-76
2022/11/25 13:16:12;;;;;;;5.82;1.55;;;;;;;;;;5055670;28;20061;-75
2022/11/25 13:18:41;;;;;;;9.82;2.10;;;;;;;;;;5055584;28;20063;-75
2022/11/25 13:21:09;;;;;;;8.05;1.92;;;;;;;;;;5055168;28;20550;-73
2022/11/25 13:23:55;;;;;;;5.15;1.52;;;;;;;;;;5055722;28;20055;-75
2022/11/25 13:26:33;;;;;;;4.80;1.42;;;;;;;;;;5055201;28;20084;-74
2022/11/25 13:29:13;;;;;;;5.13;1.27;;;;;;;;;;5054962;28;20025;-73
2022/11/25 13:32:23;;;;;;;2.63;1.00;;;;;;;;;;5055353;28;20515;-75
2022/11/25 13:34:48;;;;;;;4.07;1.90;;;;;;;;;;5055308;28;20080;-75
2022/11/25 13:37:32;;;;;;;2.75;0.77;;;;;;;;;;5055740;28;20033;-75
2022/11/25 13:40:29;;;;;;;3.72;1.05;;;;;;;;;;5055149;28;20032;-75
2022/11/25 13:42:56;;;;;;;4.20;1.27;;;;;;;;;;5052991;28;20220;-76
2022/11/25 13:45:28;;;;;;;2.50;1.20;;;;;;;;;;5055098;28;20052;-74
2022/11/25 13:47:55;;;;;;;4.60;1.10;;;;;;;;;;5055024;28;20025;-77
2022/11/25 13:50:25;;;;;;;3.17;1.15;;;;;;;;;;5055025;28;20484;-76
2022/11/25 13:53:04;;;;;;;3.65;1.10;;;;;;;;;;5055638;28;20392;-73
2022/11/25 13:55:33;;;;;;;2.83;1.10;;;;;;;;;;5055227;28;20039;-74
2022/11/25 13:58:08;;;;;;;5.68;1.10;;;;;;;;;;5054901;28;20033;-74
2022/11/25 14:00:42;;;;;;;4.25;1.40;;;;;;;;;;5053610;28;20400;-74
2022/11/25 14:03:17;;;;;;;3.67;1.17;;;;;;;;;;5055049;28;20115;-76
2022/11/25 14:05:49;;;;;;;4.13;1.50;;;;;;;;;;5054736;28;20082;-75
2022/11/25 14:08:30;;;;;;;6.30;1.90;;;;;;;;;;5055266;28;20108;-74
2022/11/25 14:11:01;;;;;;;;;;;;;;;;;;5055451;28;20031;-73
2022/11/25 14:14:14;;;;;;;3.22;1.48;;;;;;;;;;5054954;28;19951;-72
2022/11/25 14:16:49;;;;;;;3.22;1.35;;;;;;;;;;5048152;28;20116;-73
2022/11/25 14:19:59;;;;;;;3.92;1.30;;;;;;;;;;5051232;28;20045;-72
2022/11/25 14:22:58;;;;;;;3.47;1.20;;;;;;;;;;5051578;28;20109;-72
2022/11/25 14:25:31;;;;;;;2.58;1.00;;;;;;;;;;5050335;28;20366;-73
2022/11/25 14:28:07;;;;;;;5.07;1.20;;;;;;;;;;5051472;28;20090;-72
2022/11/25 14:30:34;;;;;;;4.18;1.17;;;;;;;;;;5051572;28;20025;-72
2022/11/25 14:33:08;;;;;;;5.18;1.35;;;;;;;;;;5051604;28;20433;-72
2022/11/25 14:35:49;;;;;;;7.10;1.30;;;;;;;;;;5051386;28;20735;-73
2022/11/25 14:38:19;;;;;;;6.53;1.52;;;;;;;;;;5051283;28;20036;-75
2022/11/25 14:41:01;;;;;;;3.67;1.40;;;;;;;;;;5050927;28;20025;-73
2022/11/25 14:43:29;;;;;;;4.28;1.20;;;;;;;;;;5049523;28;20060;-75
2022/11/25 14:46:19;;;;;;;6.10;1.33;;;;;;;;;;5051184;28;20021;-74
2022/11/25 14:48:53;;;;;;;3.55;1.08;;;;;;;;;;5051315;28;20043;-73
2022/11/25 14:51:19;;;;;;;5.18;1.20;;;;;;;;;;5050951;28;20516;-74
2022/11/25 14:53:47;;;;;;;6.35;1.40;;;;;;;;;;5051003;28;20027;-73
2022/11/25 14:56:14;;;;;;;4.22;1.40;;;;;;;;;;5050587;28;20116;-73
2022/11/25 14:58:48;;;;;;;5.00;1.38;;;;;;;;;;5051029;28;20083;-73
2022/11/25 15:01:25;;;;;;;6.03;1.40;;;;;;;;;;5050855;28;20024;-73
2022/11/25 15:04:03;;;;;;;6.13;1.50;;;;;;;;;;5051150;28;20477;-75
2022/11/25 15:06:34;;;;;;;5.95;1.30;;;;;;;;;;5050843;28;20021;-76
2022/11/25 15:09:00;;;;;;;4.55;1.02;;;;;;;;;;5051142;28;20018;-76
2022/11/25 15:11:30;;;;;;;4.70;1.20;;;;;;;;;;5050674;28;20100;-75
2022/11/25 15:14:04;;;;;;;4.57;1.30;;;;;;;;;;5050713;28;20047;-76